createdAt,value
2019-04-11T00:00:55.492Z,64.79
2019-04-11T00:03:23.621Z,65.58
2019-04-11T00:05:52.866Z,64.96
2019-04-11T00:08:21.737Z,65.57
2019-04-11T00:10:50.225Z,65.32
2019-04-11T00:13:24.320Z,66.02
2019-04-11T00:15:48.774Z,64.55
2019-04-11T00:18:17.328Z,65.13
2019-04-11T00:20:46.755Z,64.98
2019-04-11T00:23:16.364Z,64.86
2019-04-11T00:25:45.150Z,65.51
2019-04-11T00:28:15.335Z,65.38
2019-04-11T00:30:44.107Z,66.87
2019-04-11T00:33:12.585Z,64.98
2019-04-11T00:35:42.401Z,65.12
2019-04-11T00:38:11.763Z,65.75
2019-04-11T00:40:41.628Z,66.78
2019-04-11T00:43:11.367Z,66.25
2019-04-11T00:45:40.033Z,66.64
2019-04-11T00:48:09.228Z,65.49
2019-04-11T00:50:37.273Z,65.38
2019-04-11T00:53:06.027Z,66.32
2019-04-11T00:55:35.617Z,65.73
2019-04-11T00:58:05.440Z,66.91
2019-04-11T01:00:36.534Z,66.11
2019-04-11T01:03:04.863Z,66.26
2019-04-11T01:05:33.894Z,66.12
2019-04-11T01:08:02.973Z,66.10
2019-04-11T01:10:31.971Z,66.22
2019-04-11T01:13:00.799Z,65.61
2019-04-11T01:15:29.275Z,66.39
2019-04-11T01:17:58.047Z,66.86
2019-04-11T01:20:27.212Z,66.29
2019-04-11T01:22:56.417Z,66.46
2019-04-11T01:25:25.370Z,65.90
2019-04-11T01:27:56.435Z,65.53
2019-04-11T01:30:29.078Z,66.71
2019-04-11T01:32:58.934Z,66.38
2019-04-11T01:35:26.634Z,66.32
2019-04-11T01:37:55.755Z,66.53
2019-04-11T01:40:25.259Z,65.93
2019-04-11T01:42:53.061Z,66.19
2019-04-11T01:45:22.241Z,66.19
2019-04-11T01:48:04.932Z,66.55
2019-04-11T01:50:34.954Z,66.70
2019-04-11T01:53:04.087Z,66.69
2019-04-11T01:55:33.090Z,66.99
2019-04-11T01:58:02.535Z,66.30
2019-04-11T02:01:35.508Z,67.03
2019-04-11T02:04:23.767Z,66.67
2019-04-11T02:06:52.010Z,67.31
2019-04-11T02:09:20.642Z,66.98
2019-04-11T02:11:52.115Z,66.74
2019-04-11T02:14:22.346Z,67.21
2019-04-11T02:16:52.022Z,67.40
2019-04-11T02:19:20.381Z,66.71
2019-04-11T02:21:49.568Z,67.12
2019-04-11T02:24:54.309Z,67.55
2019-04-11T02:27:26.021Z,67.73
2019-04-11T02:29:55.131Z,67.32
2019-04-11T02:32:24.959Z,67.26
2019-04-11T02:34:54.632Z,66.21
2019-04-11T02:37:24.029Z,67.31
2019-04-11T02:39:53.501Z,67.18
2019-04-11T02:42:21.421Z,68.11
2019-04-11T02:45:03.389Z,68.05
2019-04-11T02:47:24.262Z,68.33
2019-04-11T02:49:49.657Z,67.87
2019-04-11T02:52:19.555Z,67.86
2019-04-11T02:54:47.429Z,67.41
2019-04-11T02:57:16.490Z,68.25
2019-04-11T02:59:49.232Z,68.09
2019-04-11T03:02:19.534Z,69.48
2019-04-11T03:04:48.113Z,68.13
2019-04-11T03:07:16.668Z,68.94
2019-04-11T03:09:48.753Z,69.04
2019-04-11T03:12:15.784Z,70.00
2019-04-11T03:15:02.759Z,69.84
2019-04-11T03:17:21.294Z,69.33
2019-04-11T03:19:59.215Z,69.97
2019-04-11T03:22:18.218Z,69.11
2019-04-11T03:24:48.989Z,69.08
2019-04-11T03:27:17.832Z,69.43
2019-04-11T03:29:45.397Z,70.55
2019-04-11T03:33:00.728Z,70.66
2019-04-11T03:35:45.551Z,69.69
2019-04-11T03:37:37.320Z,70.73
2019-04-11T03:39:59.575Z,70.73
2019-04-11T03:42:29.943Z,71.43
2019-04-11T03:44:47.212Z,72.56
2019-04-11T03:47:23.707Z,71.48
2019-04-11T03:49:46.610Z,70.94
2019-04-11T03:52:09.780Z,71.57
2019-04-11T03:54:36.746Z,71.51
2019-04-11T03:57:05.615Z,71.12
2019-04-11T03:59:36.129Z,71.23
2019-04-11T04:02:03.320Z,71.87
2019-04-11T04:04:32.757Z,70.86
2019-04-11T04:07:00.454Z,70.60
2019-04-11T04:09:29.561Z,71.28
2019-04-11T04:11:59.681Z,72.64
2019-04-11T04:14:39.270Z,71.94
2019-04-11T04:17:17.171Z,71.51
2019-04-11T04:19:54.320Z,72.04
2019-04-11T04:22:31.420Z,72.81
2019-04-11T04:25:00.637Z,72.19
2019-04-11T04:27:28.192Z,72.48
2019-04-11T04:29:59.580Z,72.49
2019-04-11T04:32:25.576Z,72.26
2019-04-11T04:34:56.314Z,72.44
2019-04-11T04:37:26.065Z,72.88
2019-04-11T04:40:16.397Z,72.80
2019-04-11T04:42:27.214Z,74.02
2019-04-11T04:44:50.934Z,73.10
2019-04-11T04:47:29.837Z,73.40
2019-04-11T04:49:48.689Z,73.75
2019-04-11T04:52:18.671Z,73.77
2019-04-11T04:54:46.568Z,72.81
2019-04-11T04:57:15.466Z,72.87
2019-04-11T04:59:44.826Z,72.72
2019-04-11T05:02:14.895Z,73.71
2019-04-11T05:04:43.688Z,73.80
2019-04-11T05:07:12.148Z,73.65
2019-04-11T05:09:42.493Z,73.46
2019-04-11T05:12:11.878Z,73.53
2019-04-11T05:14:39.427Z,72.99
2019-04-11T05:17:08.787Z,73.08
2019-04-11T05:19:38.342Z,73.56
2019-04-11T05:22:08.774Z,73.72
2019-04-11T05:24:37.540Z,73.20
2019-04-11T05:27:06.908Z,73.67
2019-04-11T05:29:37.632Z,73.92
2019-04-11T05:32:07.259Z,73.06
2019-04-11T05:34:35.651Z,73.05
2019-04-11T05:37:05.150Z,72.63
2019-04-11T05:39:36.067Z,73.55
2019-04-11T05:42:05.119Z,73.04
2019-04-11T05:44:35.233Z,72.92
2019-04-11T05:47:05.627Z,72.84
2019-04-11T05:49:40.837Z,72.04
2019-04-11T05:52:10.171Z,72.83
2019-04-11T05:54:49.278Z,73.02
2019-04-11T05:57:22.162Z,72.62
2019-04-11T05:59:49.919Z,71.44
2019-04-11T06:02:24.848Z,72.26
2019-04-11T06:04:57.808Z,71.66
2019-04-11T06:07:42.414Z,71.33
2019-04-11T06:10:14.685Z,70.67
2019-04-11T06:13:50.950Z,68.84
2019-04-11T06:16:20.736Z,59.70
2019-04-11T06:18:54.831Z,53.83
2019-04-11T06:21:33.892Z,52.63
2019-04-11T06:24:12.031Z,49.33
2019-04-11T06:26:46.963Z,48.94
2019-04-11T06:29:23.246Z,46.04
2019-04-11T06:32:09.701Z,45.26
2019-04-11T06:34:43.818Z,45.59
2019-04-11T06:37:17.196Z,42.07
2019-04-11T06:39:57.755Z,43.92
2019-04-11T06:42:30.197Z,42.64
2019-04-11T06:45:04.062Z,42.46
2019-04-11T06:47:43.178Z,40.71
2019-04-11T06:50:25.096Z,39.50
2019-04-11T06:52:53.170Z,39.67
2019-04-11T06:55:28.994Z,38.16
2019-04-11T06:58:01.192Z,40.54
2019-04-11T07:00:31.457Z,39.68
2019-04-11T07:03:01.693Z,38.24
2019-04-11T07:05:33.139Z,37.87
2019-04-11T07:08:05.546Z,36.99
2019-04-11T07:10:40.808Z,36.31
2019-04-11T07:13:16.375Z,37.84
2019-04-11T07:15:48.926Z,36.53
2019-04-11T07:18:23.090Z,34.82
2019-04-11T07:20:56.359Z,35.31
2019-04-11T07:23:30.674Z,34.58
2019-04-11T07:26:38.480Z,34.02
2019-04-11T07:30:11.372Z,32.40
2019-04-11T07:32:40.629Z,31.01
2019-04-11T07:35:13.100Z,30.37
2019-04-11T07:37:44.703Z,29.56
2019-04-11T07:41:19.547Z,28.63
2019-04-11T07:43:48.009Z,29.72
2019-04-11T07:46:27.381Z,30.85
2019-04-11T07:48:59.428Z,29.91
2019-04-11T07:51:28.941Z,30.67
2019-04-11T07:54:02.332Z,31.06
2019-04-11T07:56:37.564Z,31.55
2019-04-11T07:59:08.310Z,31.67
2019-04-11T08:01:47.881Z,33.06
2019-04-11T08:04:22.103Z,32.44
2019-04-11T08:06:57.052Z,34.25
2019-04-11T08:09:42.068Z,34.86
2019-04-11T08:12:18.404Z,35.55
2019-04-11T08:16:58.035Z,37.01
2019-04-11T08:19:47.239Z,37.68
2019-04-11T08:22:20.992Z,39.52
2019-04-11T08:24:58.722Z,39.60
2019-04-11T08:27:29.445Z,40.64
2019-04-11T08:30:00.358Z,41.68
2019-04-11T08:32:34.507Z,41.52
2019-04-11T08:35:10.141Z,40.50
2019-04-11T08:37:45.452Z,41.13
2019-04-11T08:40:13.531Z,41.12
2019-04-11T08:42:50.922Z,41.42
2019-04-11T08:45:21.590Z,41.33
2019-04-11T08:47:54.507Z,41.14
2019-04-11T08:50:26.072Z,41.34
2019-04-11T08:53:06.733Z,41.53
2019-04-11T08:55:48.531Z,41.54
2019-04-11T08:58:20.511Z,41.01
2019-04-11T09:00:53.097Z,41.23
2019-04-11T09:03:38.348Z,41.56
2019-04-11T09:06:12.411Z,40.65
2019-04-11T09:09:15.478Z,41.24
2019-04-11T09:11:48.924Z,41.57
2019-04-11T09:14:22.697Z,41.02
2019-04-11T09:17:03.764Z,39.77
2019-04-11T09:19:36.796Z,40.87
2019-04-11T09:22:43.368Z,41.03
2019-04-11T09:25:18.985Z,40.24
2019-04-11T09:27:55.630Z,40.32
2019-04-11T09:30:28.609Z,40.69
2019-04-11T09:34:05.681Z,40.49
2019-04-11T09:36:47.244Z,39.14
2019-04-11T09:39:19.471Z,39.31
2019-04-11T09:42:56.085Z,39.81
2019-04-11T09:45:37.542Z,38.58
2019-04-11T09:48:15.278Z,36.66
2019-04-11T09:50:46.845Z,38.23
2019-04-11T09:53:14.796Z,38.45
2019-04-11T09:55:51.648Z,37.00
2019-04-11T09:58:25.296Z,37.39
2019-04-11T10:01:01.455Z,37.50
2019-04-11T10:03:32.152Z,36.83
2019-04-11T10:06:12.263Z,35.31
2019-04-11T10:08:43.711Z,35.84
2019-04-11T10:11:17.682Z,36.04
2019-04-11T10:14:19.555Z,34.57
2019-04-11T10:16:53.165Z,33.26
2019-04-11T10:19:25.004Z,34.00
2019-04-11T10:21:58.503Z,34.23
2019-04-11T10:24:34.671Z,34.87
2019-04-11T10:27:08.802Z,32.98
2019-04-11T10:29:41.905Z,33.09
2019-04-11T10:32:10.836Z,32.89
2019-04-11T10:34:47.746Z,33.72
2019-04-11T10:37:18.260Z,34.15
2019-04-11T10:40:05.965Z,32.85
2019-04-11T10:42:34.966Z,32.56
2019-04-11T10:45:36.440Z,31.93
2019-04-11T10:48:06.872Z,32.04
2019-04-11T10:51:45.608Z,32.16
2019-04-11T10:54:15.580Z,31.47
2019-04-11T10:56:51.617Z,32.20
2019-04-11T10:59:19.591Z,30.52
2019-04-11T11:01:53.676Z,30.78
2019-04-11T11:04:28.587Z,31.42
2019-04-11T11:07:00.351Z,31.85
2019-04-11T11:09:37.216Z,32.17
2019-04-11T11:12:10.638Z,32.40
2019-04-11T11:14:45.045Z,32.17
2019-04-11T11:17:43.745Z,31.73
2019-04-11T11:20:08.553Z,32.22
2019-04-11T11:23:33.106Z,32.39
2019-04-11T11:26:07.038Z,33.13
2019-04-11T11:28:38.748Z,32.19
2019-04-11T11:31:14.087Z,31.64
2019-04-11T11:33:45.016Z,32.51
2019-04-11T11:36:25.793Z,33.20
2019-04-11T11:39:00.298Z,33.73
2019-04-11T11:41:34.845Z,34.19
2019-04-11T11:44:03.727Z,32.31
2019-04-11T11:47:39.844Z,32.67
2019-04-11T11:50:14.665Z,31.73
2019-04-11T11:53:40.618Z,32.86
2019-04-11T11:56:10.010Z,33.06
2019-04-11T11:58:47.850Z,33.18
2019-04-11T12:01:13.847Z,32.28
2019-04-11T12:03:50.733Z,33.27
2019-04-11T12:06:22.223Z,31.56
2019-04-11T12:08:56.214Z,32.06
2019-04-11T12:11:26.287Z,32.63
2019-04-11T12:13:58.400Z,32.01
2019-04-11T12:16:33.514Z,31.83
2019-04-11T12:19:06.765Z,31.15
2019-04-11T12:21:36.669Z,31.58
2019-04-11T12:24:20.818Z,32.12
2019-04-11T12:26:55.967Z,32.32
2019-04-11T12:29:30.112Z,31.69
2019-04-11T12:31:58.119Z,32.18
2019-04-11T12:34:47.200Z,32.57
2019-04-11T12:37:22.214Z,32.25
2019-04-11T12:39:54.517Z,31.77
2019-04-11T12:42:28.982Z,32.30
2019-04-11T12:45:38.255Z,32.28
2019-04-11T12:48:07.670Z,31.20
2019-04-11T12:50:43.347Z,31.59
2019-04-11T12:53:16.800Z,31.74
2019-04-11T12:55:51.996Z,32.00
2019-04-11T12:58:26.106Z,31.20
2019-04-11T13:01:00.320Z,32.24
2019-04-11T13:03:35.389Z,31.48
2019-04-11T13:06:08.394Z,31.06
2019-04-11T13:08:45.423Z,30.80
2019-04-11T13:11:14.783Z,31.65
2019-04-11T13:13:49.831Z,31.74
2019-04-11T13:16:19.267Z,32.84
2019-04-11T13:18:57.127Z,32.56
2019-04-11T13:21:29.202Z,32.51
2019-04-11T13:24:03.372Z,32.77
2019-04-11T13:26:43.836Z,31.28
2019-04-11T13:29:17.691Z,30.98
2019-04-11T13:31:52.682Z,30.99
2019-04-11T13:34:22.137Z,29.44
2019-04-11T13:36:57.172Z,29.53
2019-04-11T13:39:26.963Z,30.87
2019-04-11T13:42:01.250Z,31.68
2019-04-11T13:44:32.897Z,32.31
2019-04-11T13:47:10.803Z,32.19
2019-04-11T13:49:48.008Z,31.96
2019-04-11T13:53:19.739Z,32.18
2019-04-11T13:55:49.328Z,31.51
2019-04-11T13:58:24.063Z,32.91
2019-04-11T14:00:56.580Z,33.20
2019-04-11T14:03:55.797Z,33.55
2019-04-11T14:06:28.896Z,32.75
2019-04-11T14:09:34.451Z,32.75
2019-04-11T14:12:05.831Z,31.87
2019-04-11T14:14:44.505Z,31.61
2019-04-11T14:17:22.033Z,31.85
2019-04-11T14:20:29.712Z,30.72
2019-04-11T14:23:57.882Z,31.76
2019-04-11T14:26:30.972Z,32.05
2019-04-11T14:29:05.863Z,32.52
2019-04-11T14:31:40.729Z,33.06
2019-04-11T14:34:15.092Z,32.72
2019-04-11T14:36:52.093Z,32.81
2019-04-11T14:39:22.556Z,33.24
2019-04-11T14:42:01.658Z,32.80
2019-04-11T14:44:31.424Z,32.69
2019-04-11T14:47:06.859Z,33.02
2019-04-11T14:49:34.807Z,33.22
2019-04-11T14:52:09.493Z,33.66
2019-04-11T14:54:40.881Z,33.38
2019-04-11T14:57:22.743Z,32.91
2019-04-11T14:59:53.826Z,32.76
2019-04-11T15:02:30.788Z,33.32
2019-04-11T15:05:06.089Z,33.98
2019-04-11T15:07:33.979Z,33.82
2019-04-11T15:10:09.210Z,34.34
2019-04-11T15:12:38.000Z,35.06
2019-04-11T15:15:13.957Z,35.01
2019-04-11T15:17:42.853Z,34.59
2019-04-11T15:21:19.744Z,34.32
2019-04-11T15:23:50.898Z,34.01
2019-04-11T15:26:25.776Z,33.96
2019-04-11T15:29:00.274Z,32.61
2019-04-11T15:31:39.440Z,33.24
2019-04-11T15:34:12.651Z,33.79
2019-04-11T15:36:45.552Z,33.35
2019-04-11T15:39:21.742Z,34.55
2019-04-11T15:41:53.792Z,34.38
2019-04-11T15:44:25.183Z,34.14
2019-04-11T15:46:56.485Z,34.92
2019-04-11T15:49:31.558Z,34.80
2019-04-11T15:52:07.499Z,35.09
2019-04-11T15:55:38.351Z,34.96
2019-04-11T15:58:08.145Z,34.74
2019-04-11T16:00:43.858Z,35.48
2019-04-11T16:03:15.506Z,35.80
2019-04-11T16:05:49.794Z,36.40
2019-04-11T16:08:24.800Z,35.86
2019-04-11T16:11:03.160Z,36.26
2019-04-11T16:13:35.863Z,36.21
2019-04-11T16:16:09.620Z,35.47
2019-04-11T16:18:46.940Z,36.22
2019-04-11T16:21:18.690Z,36.00
2019-04-11T16:23:51.288Z,36.06
2019-04-11T16:26:24.821Z,36.40
2019-04-11T16:28:59.134Z,36.66
2019-04-11T16:31:30.991Z,37.44
2019-04-11T16:34:10.926Z,37.67
2019-04-11T16:36:49.423Z,38.34
2019-04-11T16:39:23.491Z,37.81
2019-04-11T16:41:57.499Z,37.88
2019-04-11T16:44:35.488Z,38.23
2019-04-11T16:47:16.419Z,38.25
2019-04-11T16:49:45.225Z,38.38
2019-04-11T16:52:14.063Z,37.90
2019-04-11T16:54:42.870Z,38.31
2019-04-11T16:57:13.573Z,38.31
2019-04-11T16:59:41.510Z,38.81
2019-04-11T17:02:10.399Z,38.22
2019-04-11T17:04:40.598Z,38.75
2019-04-11T17:07:14.666Z,38.38
2019-04-11T17:09:46.474Z,38.31
2019-04-11T17:12:15.671Z,38.72
2019-04-11T17:14:44.500Z,38.29
2019-04-11T17:17:15.247Z,39.06
2019-04-11T17:19:42.140Z,39.11
2019-04-11T17:22:11.476Z,38.56
2019-04-11T17:24:40.294Z,39.01
2019-04-11T17:27:09.087Z,39.06
2019-04-11T17:29:39.482Z,39.20
2019-04-11T17:32:08.338Z,38.47
2019-04-11T17:34:37.201Z,38.73
2019-04-11T17:37:06.327Z,39.18
2019-04-11T17:39:36.835Z,39.35
2019-04-11T17:42:04.356Z,39.57
2019-04-11T17:44:33.277Z,39.03
2019-04-11T17:47:02.742Z,39.53
2019-04-11T17:49:33.739Z,39.37
2019-04-11T17:52:05.124Z,39.11
2019-04-11T17:54:32.451Z,38.87
2019-04-11T17:57:01.232Z,39.21
2019-04-11T17:59:30.040Z,38.98
2019-04-11T18:01:58.897Z,39.45
2019-04-11T18:04:28.797Z,39.59
2019-04-11T18:06:57.634Z,39.48
2019-04-11T18:09:26.501Z,39.65
2019-04-11T18:11:56.110Z,40.36
2019-04-11T18:14:24.070Z,40.17
2019-04-11T18:16:52.922Z,40.27
2019-04-11T18:19:23.015Z,40.54
2019-04-11T18:21:51.924Z,39.95
2019-04-11T18:24:21.984Z,40.18
2019-04-11T18:26:51.966Z,39.91
2019-04-11T18:29:22.741Z,39.88
2019-04-11T18:31:48.452Z,40.28
2019-04-11T18:34:17.615Z,40.53
2019-04-11T18:36:46.438Z,40.82
2019-04-11T18:39:16.139Z,40.97
2019-04-11T18:41:44.931Z,41.61
2019-04-11T18:44:18.018Z,41.39
2019-04-11T18:46:44.065Z,41.85
2019-04-11T18:49:13.024Z,41.71
2019-04-11T18:51:41.828Z,42.13
2019-04-11T18:54:11.264Z,41.81
2019-04-11T18:56:40.048Z,42.20
2019-04-11T18:59:08.933Z,42.26
2019-04-11T19:01:39.845Z,42.50
2019-04-11T19:04:07.097Z,42.80
2019-04-11T19:06:35.898Z,42.40
2019-04-11T19:09:08.850Z,42.84
2019-04-11T19:11:38.004Z,42.64
2019-04-11T19:14:07.285Z,42.95
2019-04-11T19:16:36.166Z,43.26
2019-04-11T19:19:06.292Z,43.75
2019-04-11T19:21:35.075Z,43.16
2019-04-11T19:24:03.962Z,43.58
2019-04-11T19:26:32.730Z,43.76
2019-04-11T19:29:02.813Z,44.01
2019-04-11T19:31:32.901Z,43.73
2019-04-11T19:34:04.415Z,43.85
2019-04-11T19:36:30.551Z,44.30
2019-04-11T19:39:01.823Z,43.93
2019-04-11T19:41:30.678Z,44.31
2019-04-11T19:43:59.536Z,44.26
2019-04-11T19:46:28.514Z,44.15
2019-04-11T19:48:59.671Z,44.32
2019-04-11T19:51:28.968Z,44.35
2019-04-11T19:53:58.173Z,44.52
2019-04-11T19:56:33.379Z,44.26
2019-04-11T19:59:02.869Z,44.69
2019-04-11T20:01:31.761Z,44.88
2019-04-11T20:04:01.156Z,44.59
2019-04-11T20:06:30.054Z,45.10
2019-04-11T20:08:58.900Z,44.96
2019-04-11T20:11:29.310Z,45.58
2019-04-11T20:13:57.466Z,45.33
2019-04-11T20:16:26.272Z,45.49
2019-04-11T20:18:57.509Z,45.48
2019-04-11T20:21:26.227Z,45.60
2019-04-11T20:23:55.006Z,45.70
2019-04-11T20:26:23.802Z,46.11
2019-04-11T20:28:52.604Z,46.58
2019-04-11T20:31:21.978Z,46.16
2019-04-11T20:33:51.550Z,46.26
2019-04-11T20:36:20.356Z,45.89
2019-04-11T20:38:49.279Z,45.79
2019-04-11T20:41:18.019Z,46.36
2019-04-11T20:43:46.802Z,46.09
2019-04-11T20:46:15.653Z,46.12
2019-04-11T20:48:44.532Z,46.25
2019-04-11T20:51:17.478Z,45.50
2019-04-11T20:53:44.193Z,45.71
2019-04-11T20:56:23.686Z,45.56
2019-04-11T20:58:42.160Z,46.01
2019-04-11T21:01:11.643Z,45.50
2019-04-11T21:03:40.457Z,46.30
2019-04-11T21:06:10.354Z,45.94
2019-04-11T21:08:39.188Z,46.40
2019-04-11T21:11:08.415Z,45.51
2019-04-11T21:13:38.475Z,45.50
2019-04-11T21:16:06.795Z,45.42
2019-04-11T21:18:35.588Z,45.40
2019-04-11T21:21:04.430Z,45.42
2019-04-11T21:23:33.876Z,46.05
2019-04-11T21:26:03.414Z,46.05
2019-04-11T21:28:32.460Z,45.37
2019-04-11T21:31:02.376Z,45.77
2019-04-11T21:33:34.005Z,45.66
2019-04-11T21:36:01.356Z,46.03
2019-04-11T21:38:30.936Z,46.10
2019-04-11T21:40:59.372Z,45.95
2019-04-11T21:43:28.203Z,46.32
2019-04-11T21:45:57.966Z,47.04
2019-04-11T21:48:26.950Z,46.67
2019-04-11T21:50:55.769Z,46.37
2019-04-11T21:53:35.971Z,47.03
2019-04-11T21:55:54.810Z,47.28
2019-04-11T21:58:23.566Z,46.76
2019-04-11T22:00:58.168Z,47.01
2019-04-11T22:03:27.029Z,46.65
2019-04-11T22:05:59.844Z,46.51
2019-04-11T22:08:24.640Z,46.45
2019-04-11T22:10:53.431Z,47.03
2019-04-11T22:13:22.215Z,46.08
2019-04-11T22:15:52.092Z,46.90
2019-04-11T22:18:20.894Z,46.57
2019-04-11T22:20:49.787Z,47.38
2019-04-11T22:23:18.668Z,47.44
2019-04-11T22:25:47.498Z,47.07
2019-04-11T22:28:16.324Z,47.63
2019-04-11T22:30:45.433Z,47.31
2019-04-11T22:33:52.087Z,47.71
2019-04-11T22:36:22.133Z,47.63
2019-04-11T22:38:50.952Z,48.04
2019-04-11T22:41:19.876Z,47.77
2019-04-11T22:43:48.654Z,47.52
2019-04-11T22:46:20.898Z,48.05
2019-04-11T22:48:46.247Z,48.02
2019-04-11T22:51:15.407Z,48.14
2019-04-11T22:53:45.654Z,48.47
2019-04-11T22:56:14.441Z,48.91
2019-04-11T22:58:43.818Z,48.53
2019-04-11T23:01:13.995Z,49.11
2019-04-11T23:03:47.584Z,49.06
2019-04-11T23:06:14.941Z,48.90
2019-04-11T23:08:43.568Z,48.99
2019-04-11T23:11:15.120Z,48.75
2019-04-11T23:13:45.364Z,49.32
2019-04-11T23:16:14.381Z,49.46
2019-04-11T23:18:44.214Z,49.29
2019-04-11T23:21:14.305Z,49.53
2019-04-11T23:23:42.747Z,49.69
2019-04-11T23:26:11.606Z,50.29
2019-04-11T23:28:40.860Z,49.88
2019-04-11T23:31:09.679Z,50.25
2019-04-11T23:33:38.544Z,50.15
2019-04-11T23:36:07.861Z,50.58
2019-04-11T23:38:37.176Z,50.41
2019-04-11T23:41:06.031Z,50.31
2019-04-11T23:43:34.826Z,50.36
2019-04-11T23:46:04.740Z,51.09
2019-04-11T23:48:33.540Z,50.48
2019-04-11T23:51:03.022Z,51.51
2019-04-11T23:53:32.052Z,51.29
2019-04-11T23:56:01.415Z,51.91
2019-04-11T23:58:32.070Z,51.55
